Time;durP1;ratioP1;P1;durP2;ratioP2;P2;SDS_P1;SDS_P2;PMS_P1;PMS_P2;Temp;Humidity;BMP_temperature;BMP_pressure;BME280_temperature;BME280_humidity;BME280_pressure;Samples;Min_cycle;Max_cycle;Signal;HPM_P1;HPM_P2
2022/05/22 00:01:05;;;;;;;11.00;4.80;;;;;;;;;;5013501;28;20196;-72
2022/05/22 00:03:30;;;;;;;13.30;4.40;;;;;;;;;;5013529;28;20030;-72
2022/05/22 00:05:56;;;;;;;12.98;4.30;;;;;;;;;;5013489;28;20080;-71
2022/05/22 00:08:21;;;;;;;9.90;4.40;;;;;;;;;;5013489;28;20033;-70
2022/05/22 00:10:47;;;;;;;13.77;4.88;;;;;;;;;;5013756;28;20476;-68
2022/05/22 00:13:12;;;;;;;13.38;5.05;;;;;;;;;;5013284;28;20271;-69
2022/05/22 00:16:36;;;;;;;11.82;4.47;;;;;;;;;;5013120;28;20079;-72
2022/05/22 00:18:23;;;;;;;13.30;4.93;;;;;;;;;;5013011;28;20481;-72
2022/05/22 00:20:48;;;;;;;14.70;4.93;;;;;;;;;;5013084;28;20175;-74
2022/05/22 00:23:14;;;;;;;13.50;4.60;;;;;;;;;;5013302;28;20026;-71
2022/05/22 00:25:39;;;;;;;13.82;4.63;;;;;;;;;;5012904;28;20087;-70
2022/05/22 00:28:05;;;;;;;12.05;4.38;;;;;;;;;;5013008;28;20022;-73
2022/05/22 00:30:30;;;;;;;12.07;4.80;;;;;;;;;;5012670;28;20029;-70
2022/05/22 00:32:56;;;;;;;13.52;4.60;;;;;;;;;;5013063;28;20041;-72
2022/05/22 00:35:21;;;;;;;11.13;4.35;;;;;;;;;;5012896;28;20382;-73
2022/05/22 00:37:47;;;;;;;13.02;4.95;;;;;;;;;;5013087;28;20374;-71
2022/05/22 00:40:12;;;;;;;15.38;4.82;;;;;;;;;;5012743;28;20061;-72
2022/05/22 00:42:38;;;;;;;11.88;4.70;;;;;;;;;;5012959;28;20025;-73
2022/05/22 00:45:05;;;;;;;11.30;4.78;;;;;;;;;;5012797;28;20245;-72
2022/05/22 00:47:31;;;;;;;12.55;4.90;;;;;;;;;;5012454;28;20030;-73
2022/05/22 00:50:00;;;;;;;12.93;4.95;;;;;;;;;;5011968;28;20102;-74
2022/05/22 00:52:45;;;;;;;10.75;4.68;;;;;;;;;;5015477;28;20036;-75
2022/05/22 00:55:22;;;;;;;15.10;4.90;;;;;;;;;;5015454;28;20038;-72
2022/05/22 00:57:54;;;;;;;15.02;4.85;;;;;;;;;;5016685;28;20033;-72
2022/05/22 01:00:27;;;;;;;11.43;4.55;;;;;;;;;;5016302;28;20041;-71
2022/05/22 01:05:40;;;;;;;12.82;4.70;;;;;;;;;;5012715;28;20045;-73
2022/05/22 01:08:06;;;;;;;16.42;4.97;;;;;;;;;;5012388;28;20030;-72
2022/05/22 01:10:38;;;;;;;12.70;4.72;;;;;;;;;;5012093;28;20025;-71
2022/05/22 01:13:05;;;;;;;14.15;4.43;;;;;;;;;;5012722;28;20080;-70
2022/05/22 01:15:30;;;;;;;9.43;4.70;;;;;;;;;;5012200;28;20072;-72
2022/05/22 01:17:56;;;;;;;12.13;4.57;;;;;;;;;;5012488;28;20057;-70
2022/05/22 01:20:21;;;;;;;12.13;4.63;;;;;;;;;;5011912;28;20030;-72
2022/05/22 01:22:47;;;;;;;12.50;4.78;;;;;;;;;;5011873;28;20052;-72
2022/05/22 01:25:12;;;;;;;13.10;4.93;;;;;;;;;;5011646;28;20022;-72
2022/05/22 01:27:39;;;;;;;15.00;5.00;;;;;;;;;;5012012;28;20022;-73
2022/05/22 01:30:28;;;;;;;12.65;4.88;;;;;;;;;;5011628;28;20474;-72
2022/05/22 01:32:54;;;;;;;14.15;4.85;;;;;;;;;;5011737;28;20253;-71
2022/05/22 01:35:23;;;;;;;13.43;4.88;;;;;;;;;;5011752;28;20235;-71
2022/05/22 01:37:49;;;;;;;10.65;4.57;;;;;;;;;;5011255;28;20030;-71
2022/05/22 01:40:16;;;;;;;16.48;5.15;;;;;;;;;;5011292;28;20030;-72
2022/05/22 01:42:42;;;;;;;12.40;4.78;;;;;;;;;;5011582;28;20033;-71
2022/05/22 01:45:11;;;;;;;13.45;4.80;;;;;;;;;;5010183;28;20364;-72
2022/05/22 01:47:38;;;;;;;11.43;4.95;;;;;;;;;;5012115;28;20033;-71
2022/05/22 01:50:05;;;;;;;13.55;4.95;;;;;;;;;;5011642;28;20552;-73
2022/05/22 01:52:34;;;;;;;13.57;4.85;;;;;;;;;;5011359;28;20056;-73
2022/05/22 01:54:59;;;;;;;13.65;5.00;;;;;;;;;;5011556;28;20036;-72
2022/05/22 01:57:25;;;;;;;16.35;4.70;;;;;;;;;;5011611;28;20026;-71
2022/05/22 01:59:51;;;;;;;12.75;4.45;;;;;;;;;;5011198;28;20107;-72
2022/05/22 02:02:17;;;;;;;14.13;4.80;;;;;;;;;;5011386;28;20466;-71
2022/05/22 02:04:42;;;;;;;10.45;4.90;;;;;;;;;;5011588;28;20033;-72
2022/05/22 02:09:52;;;;;;;10.32;5.00;;;;;;;;;;5011312;28;20389;-73
2022/05/22 02:12:18;;;;;;;14.35;4.80;;;;;;;;;;5011128;28;20473;-70
2022/05/22 02:14:43;;;;;;;14.63;4.63;;;;;;;;;;5010876;28;20017;-73
2022/05/22 02:17:09;;;;;;;13.30;4.65;;;;;;;;;;5010935;28;20058;-71
2022/05/22 02:19:34;;;;;;;12.05;4.47;;;;;;;;;;5011016;28;20022;-72
2022/05/22 02:22:00;;;;;;;16.40;5.05;;;;;;;;;;5011475;28;20036;-72
2022/05/22 02:24:25;;;;;;;13.00;4.95;;;;;;;;;;5011024;28;20049;-71
2022/05/22 02:26:51;;;;;;;10.38;4.28;;;;;;;;;;5011066;28;20021;-73
2022/05/22 02:29:16;;;;;;;11.65;4.60;;;;;;;;;;5010831;28;20116;-73
2022/05/22 02:31:42;;;;;;;10.20;4.45;;;;;;;;;;5011057;28;20053;-72
2022/05/22 02:34:07;;;;;;;13.98;4.93;;;;;;;;;;5010522;28;20030;-72
2022/05/22 02:36:33;;;;;;;12.77;4.55;;;;;;;;;;5010912;28;20045;-72
2022/05/22 02:38:58;;;;;;;14.18;5.20;;;;;;;;;;5010804;28;20057;-72
2022/05/22 02:41:25;;;;;;;14.20;4.88;;;;;;;;;;5010662;28;20034;-71
2022/05/22 02:43:51;;;;;;;12.98;4.57;;;;;;;;;;5010665;28;20042;-73
2022/05/22 02:46:18;;;;;;;9.52;4.75;;;;;;;;;;5010518;28;20026;-74
2022/05/22 02:48:43;;;;;;;16.02;4.80;;;;;;;;;;5010621;28;20385;-73
2022/05/22 02:51:11;;;;;;;10.52;4.60;;;;;;;;;;5010178;28;20489;-70
2022/05/22 02:53:37;;;;;;;9.73;4.60;;;;;;;;;;5010797;28;20245;-72
2022/05/22 02:56:10;;;;;;;15.18;4.68;;;;;;;;;;5010466;28;20022;-70
2022/05/22 02:58:35;;;;;;;12.55;4.65;;;;;;;;;;5010466;28;20039;-73
2022/05/22 03:01:01;;;;;;;14.40;4.90;;;;;;;;;;5010176;28;20026;-70
2022/05/22 03:03:26;;;;;;;10.75;4.65;;;;;;;;;;5010701;28;20025;-70
2022/05/22 03:08:35;;;;;;;10.85;4.80;;;;;;;;;;5010798;28;20088;-71
2022/05/22 03:11:05;;;;;;;11.15;4.60;;;;;;;;;;5010543;28;20034;-70
2022/05/22 03:13:30;;;;;;;15.07;5.00;;;;;;;;;;5010336;28;20029;-68
2022/05/22 03:15:56;;;;;;;14.77;5.40;;;;;;;;;;5010321;28;20021;-73
2022/05/22 03:18:21;;;;;;;14.05;5.03;;;;;;;;;;5010190;28;20038;-72
2022/05/22 03:20:47;;;;;;;11.23;4.78;;;;;;;;;;5009953;28;20101;-73
2022/05/22 03:23:13;;;;;;;14.70;4.97;;;;;;;;;;5010066;28;20072;-73
2022/05/22 03:25:39;;;;;;;11.98;4.68;;;;;;;;;;5009951;28;20058;-73
2022/05/22 03:28:05;;;;;;;14.48;5.00;;;;;;;;;;5014388;28;20026;-71
2022/05/22 03:30:31;;;;;;;9.93;4.75;;;;;;;;;;5014093;28;20545;-70
2022/05/22 03:32:56;;;;;;;11.18;4.70;;;;;;;;;;5014376;28;20381;-72
2022/05/22 03:35:22;;;;;;;13.68;4.63;;;;;;;;;;5013914;28;20153;-70
2022/05/22 03:37:48;;;;;;;9.95;4.70;;;;;;;;;;5013908;28;20017;-71
2022/05/22 03:40:14;;;;;;;10.45;4.80;;;;;;;;;;5013863;28;20029;-71
2022/05/22 03:42:40;;;;;;;15.93;4.80;;;;;;;;;;5013752;28;20493;-72
2022/05/22 03:45:06;;;;;;;15.05;5.03;;;;;;;;;;5013608;28;20503;-72
2022/05/22 03:47:31;;;;;;;14.68;4.90;;;;;;;;;;5013715;28;20160;-72
2022/05/22 03:49:57;;;;;;;13.13;4.65;;;;;;;;;;5013911;28;20492;-73
2022/05/22 03:52:23;;;;;;;12.23;4.90;;;;;;;;;;5013748;28;20077;-71
2022/05/22 03:54:48;;;;;;;11.18;4.85;;;;;;;;;;5013867;28;20021;-72
2022/05/22 03:57:14;;;;;;;14.38;4.70;;;;;;;;;;5013553;28;20107;-73
2022/05/22 03:59:40;;;;;;;9.98;4.68;;;;;;;;;;5013436;28;20109;-72
2022/05/22 04:02:06;;;;;;;11.63;4.30;;;;;;;;;;5013142;28;20474;-71
2022/05/22 04:04:32;;;;;;;12.95;4.47;;;;;;;;;;5013623;28;20097;-70
2022/05/22 04:06:58;;;;;;;14.27;4.85;;;;;;;;;;5013472;28;20034;-74
2022/05/22 04:09:27;;;;;;;17.27;4.57;;;;;;;;;;5013454;28;20030;-72
2022/05/22 04:11:52;;;;;;;16.13;4.53;;;;;;;;;;5013230;28;20045;-71
2022/05/22 04:14:19;;;;;;;14.20;4.63;;;;;;;;;;5013351;28;20053;-73
2022/05/22 04:16:44;;;;;;;14.00;4.78;;;;;;;;;;5013197;28;20057;-71
2022/05/22 04:19:10;;;;;;;11.63;4.50;;;;;;;;;;5013176;28;20100;-73
2022/05/22 04:21:35;;;;;;;11.43;4.78;;;;;;;;;;5013189;28;20049;-71
2022/05/22 04:26:45;;;;;;;10.77;4.70;;;;;;;;;;5013536;28;20029;-73
2022/05/22 04:29:12;;;;;;;16.77;4.82;;;;;;;;;;5013255;28;20030;-72
2022/05/22 04:31:37;;;;;;;13.73;4.72;;;;;;;;;;5012705;28;20038;-72
2022/05/22 04:34:03;;;;;;;12.02;4.70;;;;;;;;;;5012856;28;20517;-72
2022/05/22 04:36:28;;;;;;;11.50;4.47;;;;;;;;;;5012741;28;20022;-72
2022/05/22 04:38:54;;;;;;;13.02;4.88;;;;;;;;;;5012863;28;20060;-69
2022/05/22 04:41:21;;;;;;;12.45;4.53;;;;;;;;;;5012806;28;20026;-73
2022/05/22 04:43:46;;;;;;;11.68;4.50;;;;;;;;;;5012671;28;20084;-73
2022/05/22 04:46:12;;;;;;;12.32;4.30;;;;;;;;;;5012713;28;20022;-72
2022/05/22 04:48:37;;;;;;;11.80;4.63;;;;;;;;;;5012725;28;20456;-72
2022/05/22 04:51:03;;;;;;;12.75;4.30;;;;;;;;;;5012435;28;20022;-72
2022/05/22 04:53:28;;;;;;;13.10;4.45;;;;;;;;;;5012539;28;20033;-70
2022/05/22 04:55:54;;;;;;;11.57;4.78;;;;;;;;;;5012601;28;20497;-72
2022/05/22 04:58:20;;;;;;;11.45;4.43;;;;;;;;;;5012595;28;20674;-73
2022/05/22 05:00:46;;;;;;;8.32;4.43;;;;;;;;;;5011109;28;20311;-70
2022/05/22 05:03:12;;;;;;;13.82;5.05;;;;;;;;;;5012607;28;20417;-71
2022/05/22 05:05:38;;;;;;;12.90;5.00;;;;;;;;;;5012267;28;20030;-72
2022/05/22 05:08:04;;;;;;;9.48;4.28;;;;;;;;;;5012251;28;20088;-73
2022/05/22 05:10:30;;;;;;;11.98;4.78;;;;;;;;;;5012046;28;20026;-73
2022/05/22 05:12:56;;;;;;;17.23;4.70;;;;;;;;;;5012252;28;20032;-72
2022/05/22 05:15:23;;;;;;;11.43;4.65;;;;;;;;;;5012272;28;20101;-72
2022/05/22 05:17:48;;;;;;;11.15;5.00;;;;;;;;;;5012359;28;20041;-72
2022/05/22 05:20:18;;;;;;;11.07;4.40;;;;;;;;;;5012315;28;20025;-72
2022/05/22 05:22:44;;;;;;;13.13;5.00;;;;;;;;;;5011770;28;20045;-72
2022/05/22 05:25:12;;;;;;;10.43;4.55;;;;;;;;;;5011934;28;20076;-72
2022/05/22 05:27:38;;;;;;;11.18;4.60;;;;;;;;;;5012100;28;20216;-71
2022/05/22 05:30:05;;;;;;;15.40;4.95;;;;;;;;;;5011915;28;20026;-69
2022/05/22 05:32:30;;;;;;;11.50;4.40;;;;;;;;;;5011814;28;20151;-72
2022/05/22 05:34:57;;;;;;;14.10;4.82;;;;;;;;;;5011819;28;20433;-69
2022/05/22 05:37:23;;;;;;;15.07;4.78;;;;;;;;;;5011765;28;20045;-72
2022/05/22 05:39:49;;;;;;;13.40;4.88;;;;;;;;;;5011726;28;20116;-72
2022/05/22 05:42:14;;;;;;;10.13;4.40;;;;;;;;;;5011642;28;20185;-70
2022/05/22 05:44:40;;;;;;;11.93;4.25;;;;;;;;;;5011707;28;20045;-70
2022/05/22 05:47:08;;;;;;;13.13;5.00;;;;;;;;;;5011603;28;20053;-72
2022/05/22 05:49:33;;;;;;;13.25;4.30;;;;;;;;;;5011122;28;20126;-70
2022/05/22 05:52:01;;;;;;;12.55;4.20;;;;;;;;;;5011383;28;20164;-72
2022/05/22 05:54:26;;;;;;;12.10;4.65;;;;;;;;;;5011607;28;20026;-69
2022/05/22 05:56:52;;;;;;;12.07;4.72;;;;;;;;;;5011518;28;20438;-70
2022/05/22 05:59:17;;;;;;;10.48;4.40;;;;;;;;;;5011521;28;20502;-72
2022/05/22 06:01:43;;;;;;;11.80;4.45;;;;;;;;;;5011026;28;20564;-70
2022/05/22 06:04:08;;;;;;;13.40;4.40;;;;;;;;;;5011313;28;20049;-73
2022/05/22 06:06:34;;;;;;;13.77;4.57;;;;;;;;;;5011285;28;20022;-70
2022/05/22 06:09:00;;;;;;;10.10;4.03;;;;;;;;;;5011253;28;20101;-71
2022/05/22 06:11:26;;;;;;;9.20;4.18;;;;;;;;;;5011017;28;20113;-73
2022/05/22 06:13:51;;;;;;;8.30;3.90;;;;;;;;;;5011123;28;20040;-71
2022/05/22 06:16:17;;;;;;;13.57;4.95;;;;;;;;;;5011595;28;20393;-71
2022/05/22 06:18:43;;;;;;;12.73;4.68;;;;;;;;;;5010948;28;20108;-74
2022/05/22 06:21:16;;;;;;;14.13;4.60;;;;;;;;;;5010682;28;20097;-70
2022/05/22 06:23:42;;;;;;;10.38;4.60;;;;;;;;;;5011228;28;20042;-70
2022/05/22 06:26:10;;;;;;;10.52;4.50;;;;;;;;;;5010993;28;20029;-71
2022/05/22 06:28:36;;;;;;;8.55;4.38;;;;;;;;;;5010994;28;20057;-70
2022/05/22 06:31:04;;;;;;;10.05;4.45;;;;;;;;;;5010888;28;20110;-70
2022/05/22 06:33:30;;;;;;;13.65;4.78;;;;;;;;;;5011266;28;20026;-71
2022/05/22 06:35:55;;;;;;;13.32;4.55;;;;;;;;;;5010361;28;20414;-72
2022/05/22 06:41:10;;;;;;;10.35;4.20;;;;;;;;;;5010449;28;20512;-74
2022/05/22 06:43:36;;;;;;;9.23;4.00;;;;;;;;;;5010557;28;20504;-69
2022/05/22 06:46:03;;;;;;;9.95;3.80;;;;;;;;;;5010564;28;20022;-71
2022/05/22 06:48:28;;;;;;;8.73;3.90;;;;;;;;;;5009099;28;20025;-70
2022/05/22 06:50:54;;;;;;;10.45;4.18;;;;;;;;;;5010273;28;20036;-72
2022/05/22 06:53:20;;;;;;;11.93;3.70;;;;;;;;;;5010176;28;20017;-72
2022/05/22 06:55:46;;;;;;;8.82;3.80;;;;;;;;;;5010467;28;20026;-70
2022/05/22 06:58:12;;;;;;;8.98;3.50;;;;;;;;;;5010245;28;20040;-71
2022/05/22 07:00:37;;;;;;;11.02;3.70;;;;;;;;;;5009738;28;20032;-72
2022/05/22 07:03:03;;;;;;;8.30;3.42;;;;;;;;;;5010191;28;20254;-72
2022/05/22 07:05:29;;;;;;;10.18;3.60;;;;;;;;;;5010265;28;20034;-73
2022/05/22 07:07:54;;;;;;;8.32;3.38;;;;;;;;;;5010442;28;20375;-71
2022/05/22 07:11:38;;;;;;;7.78;3.40;;;;;;;;;;5010138;28;20042;-72
2022/05/22 07:13:05;;;;;;;7.55;3.47;;;;;;;;;;5009783;28;20033;-71
2022/05/22 07:15:31;;;;;;;10.02;3.33;;;;;;;;;;5010186;28;20378;-73
2022/05/22 07:17:56;;;;;;;11.07;3.17;;;;;;;;;;5010131;28;20052;-70
2022/05/22 07:20:22;;;;;;;8.35;3.45;;;;;;;;;;5010336;28;20101;-70
2022/05/22 07:22:47;;;;;;;8.40;3.30;;;;;;;;;;5008574;28;20017;-70
2022/05/22 07:25:13;;;;;;;9.25;3.33;;;;;;;;;;5010038;28;20472;-73
2022/05/22 07:27:38;;;;;;;5.90;3.30;;;;;;;;;;5010179;28;20109;-68
2022/05/22 07:30:04;;;;;;;11.40;3.40;;;;;;;;;;5009985;28;20045;-71
2022/05/22 07:32:30;;;;;;;12.77;3.58;;;;;;;;;;5009921;28;20026;-72
2022/05/22 07:34:55;;;;;;;8.57;3.22;;;;;;;;;;5009929;28;20076;-70
2022/05/22 07:37:20;;;;;;;7.93;3.40;;;;;;;;;;5009847;28;20355;-71
2022/05/22 07:39:46;;;;;;;6.22;3.20;;;;;;;;;;5010021;28;20512;-70
2022/05/22 07:42:11;;;;;;;7.57;3.17;;;;;;;;;;5009789;28;20030;-71
2022/05/22 07:44:37;;;;;;;8.43;3.28;;;;;;;;;;5009663;28;20077;-70
2022/05/22 07:47:03;;;;;;;7.95;3.03;;;;;;;;;;5009831;28;20370;-71
2022/05/22 07:50:29;;;;;;;8.68;3.15;;;;;;;;;;5009709;28;20548;-70
2022/05/22 07:52:23;;;;;;;8.18;2.90;;;;;;;;;;5008708;28;20125;-72
2022/05/22 07:54:49;;;;;;;8.70;2.97;;;;;;;;;;5009968;28;20105;-73
2022/05/22 07:57:14;;;;;;;8.30;3.00;;;;;;;;;;5010076;28;20034;-71
2022/05/22 07:59:40;;;;;;;9.30;3.20;;;;;;;;;;5009872;28;20022;-67
2022/05/22 08:02:08;;;;;;;7.22;3.08;;;;;;;;;;5009668;28;20030;-72
2022/05/22 08:04:34;;;;;;;6.95;2.92;;;;;;;;;;5009684;28;20018;-68
2022/05/22 08:06:59;;;;;;;7.30;2.53;;;;;;;;;;5009577;28;20040;-67
2022/05/22 08:09:25;;;;;;;6.93;2.60;;;;;;;;;;5009762;28;20018;-69
2022/05/22 08:11:51;;;;;;;10.23;2.65;;;;;;;;;;5009702;28;20086;-72
2022/05/22 08:14:17;;;;;;;7.60;2.70;;;;;;;;;;5013522;28;20037;-72
2022/05/22 08:16:43;;;;;;;8.38;2.70;;;;;;;;;;5013374;28;20033;-72
2022/05/22 08:19:09;;;;;;;6.55;2.38;;;;;;;;;;5013036;28;20548;-71
2022/05/22 08:21:35;;;;;;;7.60;2.40;;;;;;;;;;5013002;28;20037;-73
2022/05/22 08:24:00;;;;;;;6.80;2.70;;;;;;;;;;5013170;28;20026;-69
2022/05/22 08:26:27;;;;;;;7.57;2.60;;;;;;;;;;5013126;28;20100;-73
2022/05/22 08:28:53;;;;;;;5.43;2.40;;;;;;;;;;5013313;28;20486;-71
2022/05/22 08:31:18;;;;;;;6.13;2.40;;;;;;;;;;5013531;28;20026;-72
2022/05/22 08:33:43;;;;;;;6.95;2.35;;;;;;;;;;5012869;28;20052;-71
2022/05/22 08:36:09;;;;;;;7.80;2.20;;;;;;;;;;5012591;28;20478;-73
2022/05/22 08:38:34;;;;;;;4.88;2.17;;;;;;;;;;5012794;28;20087;-73
2022/05/22 08:41:09;;;;;;;5.30;2.40;;;;;;;;;;5013017;28;20033;-73
2022/05/22 08:43:43;;;;;;;7.30;2.50;;;;;;;;;;5012525;28;20022;-71
2022/05/22 08:46:47;;;;;;;5.07;2.50;;;;;;;;;;5012870;28;20033;-73
2022/05/22 08:49:43;;;;;;;7.80;2.25;;;;;;;;;;5009169;28;20111;-73
2022/05/22 08:52:08;;;;;;;5.78;2.40;;;;;;;;;;5012396;28;20037;-72
2022/05/22 08:54:39;;;;;;;8.32;2.80;;;;;;;;;;5012476;28;20022;-71
2022/05/22 09:00:14;;;;;;;9.10;2.45;;;;;;;;;;5012732;28;20562;-69
2022/05/22 09:02:45;;;;;;;8.85;2.60;;;;;;;;;;5012384;28;20434;-72
2022/05/22 09:05:13;;;;;;;7.43;2.38;;;;;;;;;;5012343;28;20022;-74
2022/05/22 09:07:59;;;;;;;5.55;2.40;;;;;;;;;;5012185;28;20549;-70
2022/05/22 09:10:34;;;;;;;10.07;2.50;;;;;;;;;;5012344;28;20470;-68
2022/05/22 09:13:05;;;;;;;6.93;2.33;;;;;;;;;;5012135;28;20037;-72
2022/05/22 09:15:45;;;;;;;7.45;2.65;;;;;;;;;;5012372;28;20025;-68
2022/05/22 09:18:26;;;;;;;7.32;2.53;;;;;;;;;;5012301;28;20033;-68
2022/05/22 09:21:13;;;;;;;7.38;2.58;;;;;;;;;;5012038;28;20057;-67
2022/05/22 09:24:04;;;;;;;8.57;2.60;;;;;;;;;;5011683;28;20096;-72
2022/05/22 09:27:08;;;;;;;6.18;2.50;;;;;;;;;;5011726;28;20080;-71
2022/05/22 09:29:58;;;;;;;8.50;2.58;;;;;;;;;;5011725;28;20296;-68
2022/05/22 09:32:27;;;;;;;11.43;2.83;;;;;;;;;;5011680;28;20084;-66
2022/05/22 09:35:29;;;;;;;6.47;2.50;;;;;;;;;;5011729;28;20397;-67
2022/05/22 09:38:18;;;;;;;6.90;2.60;;;;;;;;;;5011878;28;20032;-69
2022/05/22 09:40:46;;;;;;;7.75;2.70;;;;;;;;;;5011774;28;20026;-67
2022/05/22 09:43:33;;;;;;;8.27;2.63;;;;;;;;;;5011601;28;20124;-69
2022/05/22 09:46:29;;;;;;;5.60;2.55;;;;;;;;;;5011581;28;20064;-67
2022/05/22 09:49:22;;;;;;;7.78;2.60;;;;;;;;;;5011418;28;20044;-71
2022/05/22 09:51:50;;;;;;;7.13;2.60;;;;;;;;;;5011740;28;20557;-68
2022/05/22 09:54:34;;;;;;;7.13;2.60;;;;;;;;;;5011276;28;20030;-73
2022/05/22 09:57:44;;;;;;;6.13;2.67;;;;;;;;;;5011624;28;20042;-70
2022/05/22 10:00:13;;;;;;;;;;;;;;;;;;5012036;28;20018;-68
2022/05/22 10:03:01;;;;;;;7.93;2.50;;;;;;;;;;5010996;28;19913;-73
2022/05/22 10:06:18;;;;;;;6.30;2.90;;;;;;;;;;5011124;28;20018;-73
2022/05/22 10:09:15;;;;;;;7.82;2.92;;;;;;;;;;5011317;28;20094;-73
2022/05/22 10:12:00;;;;;;;8.05;2.97;;;;;;;;;;5011246;28;20021;-72
2022/05/22 10:14:52;;;;;;;7.63;3.40;;;;;;;;;;5011058;28;20041;-74
2022/05/22 10:17:23;;;;;;;4.75;2.75;;;;;;;;;;5011222;28;20397;-72
2022/05/22 10:19:59;;;;;;;9.13;2.95;;;;;;;;;;5011090;28;20033;-69
2022/05/22 10:22:38;;;;;;;5.72;2.72;;;;;;;;;;5010650;28;20030;-72
2022/05/22 10:25:13;;;;;;;7.07;2.58;;;;;;;;;;5011138;28;20026;-72
2022/05/22 10:27:59;;;;;;;7.43;2.78;;;;;;;;;;5010971;28;20026;-73
2022/05/22 10:30:47;;;;;;;5.53;2.70;;;;;;;;;;5010875;28;20520;-73
2022/05/22 10:33:28;;;;;;;7.15;2.70;;;;;;;;;;5010595;28;20026;-72
2022/05/22 10:36:10;;;;;;;7.82;3.67;;;;;;;;;;5009005;28;20393;-72
2022/05/22 10:38:48;;;;;;;5.68;2.50;;;;;;;;;;5010474;28;20068;-73
2022/05/22 10:44:37;;;;;;;10.95;2.90;;;;;;;;;;5010379;28;20056;-72
2022/05/22 10:47:03;;;;;;;11.02;3.30;;;;;;;;;;5010627;28;20152;-68
2022/05/22 10:49:41;;;;;;;5.57;2.80;;;;;;;;;;5010480;28;20113;-68
2022/05/22 10:52:08;;;;;;;7.75;2.58;;;;;;;;;;5010473;28;20482;-70
2022/05/22 10:54:42;;;;;;;6.85;2.60;;;;;;;;;;5010242;28;20148;-71
2022/05/22 10:57:29;;;;;;;5.75;2.40;;;;;;;;;;5010216;28;20022;-72
2022/05/22 10:59:55;;;;;;;7.47;2.63;;;;;;;;;;5010303;28;20505;-71
2022/05/22 11:02:27;;;;;;;7.45;2.42;;;;;;;;;;5010361;28;20030;-72
2022/05/22 11:04:55;;;;;;;7.95;2.60;;;;;;;;;;5010511;28;20120;-70
2022/05/22 11:08:02;;;;;;;5.65;2.65;;;;;;;;;;5010379;28;20546;-72
2022/05/22 11:10:35;;;;;;;7.80;2.85;;;;;;;;;;5005367;28;20133;-73
2022/05/22 11:13:10;;;;;;;12.50;2.70;;;;;;;;;;5010205;28;20022;-73
2022/05/22 11:15:42;;;;;;;7.88;2.95;;;;;;;;;;5010423;28;20029;-73
2022/05/22 11:18:19;;;;;;;7.50;2.90;;;;;;;;;;5010179;28;20029;-73
2022/05/22 11:20:53;;;;;;;7.95;2.53;;;;;;;;;;5010059;28;20485;-73
2022/05/22 11:23:36;;;;;;;9.45;2.50;;;;;;;;;;5010253;28;20045;-72
2022/05/22 11:26:30;;;;;;;6.93;2.80;;;;;;;;;;5010045;28;20041;-72
2022/05/22 11:29:11;;;;;;;9.15;2.38;;;;;;;;;;5010008;28;20038;-72
2022/05/22 11:31:39;;;;;;;;;;;;;;;;;;5010379;28;20113;-71
2022/05/22 11:34:14;;;;;;;6.90;2.70;;;;;;;;;;5009746;28;20016;-72
2022/05/22 11:36:39;;;;;;;6.35;2.45;;;;;;;;;;5009788;28;20026;-72
2022/05/22 11:39:32;;;;;;;8.85;2.33;;;;;;;;;;5010008;28;20337;-66
2022/05/22 11:42:12;;;;;;;9.18;2.28;;;;;;;;;;5010071;28;20390;-74
2022/05/22 11:44:47;;;;;;;7.40;2.63;;;;;;;;;;5009526;28;20493;-69
2022/05/22 11:47:28;;;;;;;9.18;2.45;;;;;;;;;;5010557;28;20038;-73
2022/05/22 11:49:53;;;;;;;6.93;2.40;;;;;;;;;;5013693;28;20034;-67
2022/05/22 11:55:29;;;;;;;8.30;2.50;;;;;;;;;;5013657;28;20045;-74
2022/05/22 11:58:26;;;;;;;6.65;2.30;;;;;;;;;;5013801;28;20120;-72
2022/05/22 12:01:12;;;;;;;7.35;2.25;;;;;;;;;;5013769;28;20033;-70
2022/05/22 12:03:46;;;;;;;5.85;2.20;;;;;;;;;;5013374;28;20034;-68
2022/05/22 12:06:33;;;;;;;9.48;2.58;;;;;;;;;;5013427;28;20268;-68
2022/05/22 12:09:25;;;;;;;7.43;2.60;;;;;;;;;;5013697;28;20477;-68
2022/05/22 12:11:50;;;;;;;8.48;2.72;;;;;;;;;;5013497;28;20022;-68
2022/05/22 12:14:57;;;;;;;6.15;2.20;;;;;;;;;;5013355;28;20703;-68
2022/05/22 12:17:53;;;;;;;9.90;2.60;;;;;;;;;;5008298;28;20051;-67
2022/05/22 12:20:43;;;;;;;6.82;2.33;;;;;;;;;;5013747;28;20046;-68
2022/05/22 12:23:33;;;;;;;7.00;2.22;;;;;;;;;;5013266;28;20018;-68
2022/05/22 12:26:00;;;;;;;4.90;2.40;;;;;;;;;;5013389;28;20030;-68
2022/05/22 12:28:35;;;;;;;8.02;2.40;;;;;;;;;;5013119;28;20084;-68
2022/05/22 12:31:04;;;;;;;8.38;2.70;;;;;;;;;;5013238;28;20418;-68
2022/05/22 12:33:32;;;;;;;9.90;2.80;;;;;;;;;;5012994;28;20056;-67
2022/05/22 12:35:59;;;;;;;6.95;2.42;;;;;;;;;;5012916;28;20034;-68
2022/05/22 12:38:25;;;;;;;6.80;2.45;;;;;;;;;;5012531;28;20405;-68
2022/05/22 12:41:22;;;;;;;8.07;2.58;;;;;;;;;;5012961;28;20474;-66
2022/05/22 12:43:51;;;;;;;6.28;2.58;;;;;;;;;;5007506;28;20030;-67
2022/05/22 12:46:18;;;;;;;7.05;2.38;;;;;;;;;;5012833;28;20121;-68
2022/05/22 12:48:43;;;;;;;7.05;2.40;;;;;;;;;;5013093;28;20033;-68
2022/05/22 12:51:22;;;;;;;5.13;2.30;;;;;;;;;;5012723;28;20018;-66
2022/05/22 12:53:54;;;;;;;8.73;2.75;;;;;;;;;;5012817;28;20025;-68
2022/05/22 12:56:21;;;;;;;8.00;2.60;;;;;;;;;;5012714;28;20053;-71
2022/05/22 12:58:58;;;;;;;6.85;2.40;;;;;;;;;;5011141;28;20092;-67
2022/05/22 13:01:45;;;;;;;6.32;2.50;;;;;;;;;;5013976;28;20022;-72
2022/05/22 13:04:36;;;;;;;5.63;2.40;;;;;;;;;;5012486;28;20040;-69
2022/05/22 13:07:09;;;;;;;6.20;2.50;;;;;;;;;;5012352;28;20025;-74
2022/05/22 13:09:46;;;;;;;6.35;2.60;;;;;;;;;;5012320;28;20462;-73
2022/05/22 13:12:15;;;;;;;7.80;2.60;;;;;;;;;;5012373;28;20025;-71
2022/05/22 13:14:56;;;;;;;11.30;2.70;;;;;;;;;;5012117;28;20030;-71
2022/05/22 13:17:33;;;;;;;8.25;2.25;;;;;;;;;;5012285;28;20053;-73
2022/05/22 13:20:03;;;;;;;7.82;2.60;;;;;;;;;;5012438;28;20486;-72
2022/05/22 13:22:40;;;;;;;7.85;2.53;;;;;;;;;;5012189;28;20046;-71
2022/05/22 13:25:26;;;;;;;11.13;2.63;;;;;;;;;;5012263;28;20033;-75
2022/05/22 13:27:51;;;;;;;6.10;2.33;;;;;;;;;;5015582;28;20034;-74
2022/05/22 13:30:23;;;;;;;7.15;2.47;;;;;;;;;;5016413;28;20284;-73
2022/05/22 13:32:55;;;;;;;5.90;2.30;;;;;;;;;;5015985;28;20065;-73
2022/05/22 13:35:22;;;;;;;6.93;2.20;;;;;;;;;;5016183;28;20017;-71
2022/05/22 13:37:50;;;;;;;10.40;2.67;;;;;;;;;;5015528;28;20034;-72
2022/05/22 13:40:54;;;;;;;10.43;2.42;;;;;;;;;;5012312;28;20052;-72
2022/05/22 13:43:47;;;;;;;6.35;2.58;;;;;;;;;;5003793;28;20038;-73
2022/05/22 13:46:52;;;;;;;6.30;2.42;;;;;;;;;;5011837;28;20124;-72
2022/05/22 13:49:45;;;;;;;6.82;2.67;;;;;;;;;;5011793;28;20225;-71
2022/05/22 13:52:35;;;;;;;7.47;2.47;;;;;;;;;;5011407;28;20025;-72
2022/05/22 13:55:20;;;;;;;;;;;;;;;;;;5012089;28;20124;-72
2022/05/22 13:58:12;;;;;;;4.45;2.30;;;;;;;;;;5011531;28;19913;-68
2022/05/22 14:00:40;;;;;;;9.85;2.40;;;;;;;;;;5011621;28;20050;-70
2022/05/22 14:03:49;;;;;;;5.25;2.60;;;;;;;;;;5011334;28;20102;-68
2022/05/22 14:06:19;;;;;;;9.95;2.67;;;;;;;;;;5010842;28;20028;-72
2022/05/22 14:08:52;;;;;;;8.55;2.40;;;;;;;;;;5011316;28;20101;-72
2022/05/22 14:11:33;;;;;;;7.22;2.67;;;;;;;;;;5010738;28;20648;-67
2022/05/22 14:14:17;;;;;;;8.48;2.92;;;;;;;;;;5011391;28;20521;-71
2022/05/22 14:17:01;;;;;;;5.03;2.55;;;;;;;;;;5011030;28;20569;-72
2022/05/22 14:19:37;;;;;;;9.55;2.78;;;;;;;;;;5011047;28;20088;-74
2022/05/22 14:22:16;;;;;;;8.88;2.78;;;;;;;;;;5010984;28;20437;-72
2022/05/22 14:24:55;;;;;;;6.53;2.60;;;;;;;;;;5010727;28;20402;-71
2022/05/22 14:27:46;;;;;;;6.85;2.50;;;;;;;;;;5010814;28;20120;-72
2022/05/22 14:30:46;;;;;;;8.23;2.40;;;;;;;;;;5010902;28;20030;-73
2022/05/22 14:33:17;;;;;;;5.32;2.45;;;;;;;;;;4998679;28;20088;-73
2022/05/22 14:36:13;;;;;;;6.20;2.50;;;;;;;;;;5009287;28;20153;-72
2022/05/22 14:38:41;;;;;;;11.65;2.72;;;;;;;;;;5008518;28;20037;-68
2022/05/22 14:41:10;;;;;;;10.23;2.80;;;;;;;;;;5010921;28;20281;-73
2022/05/22 14:43:36;;;;;;;7.87;2.50;;;;;;;;;;5010509;28;20026;-73
2022/05/22 14:46:02;;;;;;;8.20;2.75;;;;;;;;;;5010280;28;20080;-68
2022/05/22 14:48:33;;;;;;;7.65;2.50;;;;;;;;;;5010635;28;20105;-72
2022/05/22 14:51:07;;;;;;;10.48;2.83;;;;;;;;;;5010721;28;20050;-70
2022/05/22 14:53:36;;;;;;;5.50;2.40;;;;;;;;;;5010563;28;20500;-71
2022/05/22 14:56:15;;;;;;;8.33;2.70;;;;;;;;;;5010345;28;20482;-68
2022/05/22 14:58:55;;;;;;;6.88;2.35;;;;;;;;;;5010258;28;20293;-73
2022/05/22 15:01:32;;;;;;;5.23;2.50;;;;;;;;;;5010363;28;20220;-73
2022/05/22 15:04:01;;;;;;;6.22;2.38;;;;;;;;;;5010406;28;20401;-72
2022/05/22 15:06:32;;;;;;;8.88;2.60;;;;;;;;;;5010084;28;20026;-73
2022/05/22 15:09:04;;;;;;;7.43;2.67;;;;;;;;;;5010469;28;20084;-72
2022/05/22 15:11:45;;;;;;;8.00;2.85;;;;;;;;;;5010321;28;20080;-73
2022/05/22 15:14:15;;;;;;;10.65;3.00;;;;;;;;;;5010131;28;20398;-73
2022/05/22 15:16:42;;;;;;;11.77;2.90;;;;;;;;;;5009837;28;20436;-73
2022/05/22 15:25:44;;;;;;;8.40;2.83;;;;;;;;;;5010271;28;20044;-68
2022/05/22 15:28:15;;;;;;;5.25;2.53;;;;;;;;;;5010344;28;20022;-73
2022/05/22 15:30:42;;;;;;;7.90;2.92;;;;;;;;;;5010034;28;20032;-72
2022/05/22 15:33:21;;;;;;;7.10;2.80;;;;;;;;;;5010144;28;20489;-73
2022/05/22 15:36:17;;;;;;;9.07;3.08;;;;;;;;;;5009900;28;20466;-73